»·PEaware :: N32FW KGCN-KPRC

N32FW :: KGCN-KPRC

FLIGHT INFORMATION

Flight Status: Arrived
Operator: Privately registered:
United States
More flights under this callsign
Pilot: John H. (43670)
Aircraft: CIRRUS SR-20
(SR20)
More flights by this aircraft type
Origin: KGCN Grand Canyon Natl Park
United States
Destination: KPRC Love
United States
More flights between these airports :: More routes between these airports
Route:
File this flight plan on PilotEdge
Remarks:
Altitude:
(Current/Filed)
10,500ft
Speed:
(Current/Filed)
0kts
Departed: 19-May-23 08:41 PM
Arrived: 19-May-23 09:17 PM
Distance/Time
Traveled:
80nm/0:36
Distance/Time
To Go:
Arrived

Flight Plot

Page will automatically refresh every two minutes.

Flight plan parsing failed; only flown route is shown


Map Options




Map Legend


Flown Route
Filed Route
Departure Airport
Arrival Airport
Navaid (VOR, NDB)
Fix

Horizontal Profiles

Position Reports

Time Latitude Longitude Heading Altitude Ground
Speed
19-May-23 20:30 35.955391 -112.141688 221 6606ft 0kts
19-May-23 20:31 35.955391 -112.141688 221 6606ft 0kts
19-May-23 20:32 35.955391 -112.141688 221 6606ft 0kts
19-May-23 20:33 35.955390 -112.141689 221 6606ft 0kts
19-May-23 20:34 35.955391 -112.141688 221 6606ft 0kts
19-May-23 20:35 35.955391 -112.141688 221 6606ft 0kts
19-May-23 20:36 35.955391 -112.141688 221 6606ft 0kts
19-May-23 20:37 35.956298 -112.141036 40 6608ft 12kts
19-May-23 20:38 35.959589 -112.137578 40 6618ft 17kts
19-May-23 20:39 35.960988 -112.136326 342 6620ft 0kts
19-May-23 20:40 35.956331 -112.142994 221 6625ft 84kts
19-May-23 20:41 35.934522 -112.170515 230 7146ft 121kts
19-May-23 20:42 35.905515 -112.199136 190 7505ft 131kts
19-May-23 20:43 35.867454 -112.207234 184 8286ft 111kts
19-May-23 20:44 35.834372 -112.213102 181 9098ft 101kts
19-May-23 20:45 35.804723 -112.218296 184 9831ft 96kts
19-May-23 20:46 35.774799 -112.223610 185 10428ft 99kts
19-May-23 20:47 35.739751 -112.229849 186 10780ft 122kts
19-May-23 20:48 35.693901 -112.237979 184 10616ft 158kts
19-May-23 20:49 35.644781 -112.246680 185 10630ft 165kts
19-May-23 20:50 35.595855 -112.255310 185 10631ft 165kts
19-May-23 20:51 35.548488 -112.263644 185 10619ft 164kts
19-May-23 20:52 35.500021 -112.272171 183 10606ft 161kts
19-May-23 20:53 35.451380 -112.280675 183 10616ft 162kts
19-May-23 20:54 35.401936 -112.289305 183 10634ft 161kts
19-May-23 20:55 35.352295 -112.298021 184 10614ft 160kts
19-May-23 20:56 35.302547 -112.306714 183 10606ft 160kts
19-May-23 20:57 35.253008 -112.315383 183 10603ft 160kts
19-May-23 20:58 35.203845 -112.323976 184 10609ft 158kts
19-May-23 20:59 35.154855 -112.332500 183 10614ft 158kts
19-May-23 21:00 35.107000 -112.340915 183 10611ft 157kts
19-May-23 21:01 35.059281 -112.349209 183 10696ft 153kts
19-May-23 21:02 35.012291 -112.357374 183 10716ft 155kts
19-May-23 21:03 34.965127 -112.365539 183 10716ft 155kts
19-May-23 21:04 34.917428 -112.373848 182 10716ft 149kts
19-May-23 21:05 34.873044 -112.381533 181 10703ft 145kts
19-May-23 21:06 34.835879 -112.387921 183 10741ft 144kts
19-May-23 21:07 34.800273 -112.394111 182 10585ft 136kts
19-May-23 21:08 34.758308 -112.401270 184 9381ft 174kts
19-May-23 21:09 34.708112 -112.409889 187 7749ft 184kts
19-May-23 21:10 34.662307 -112.412640 224 6012ft 175kts
19-May-23 21:11 34.631196 -112.434364 119 5823ft 113kts
19-May-23 21:12 34.644621 -112.401456 45 5740ft 109kts
19-May-23 21:13 34.665538 -112.376815 42 5748ft 101kts
19-May-23 21:14 34.682219 -112.389856 249 5373ft 90kts
19-May-23 21:15 34.663736 -112.409634 223 5033ft 92kts
19-May-23 21:16 34.652797 -112.421314 221 4997ft 23kts
19-May-23 21:17 34.650842 -112.422077 117 5008ft 0kts
19-May-23 21:18 34.650841 -112.422075 127 5008ft 0kts
19-May-23 21:19 34.648316 -112.424290 222 5016ft 18kts
19-May-23 21:20 34.646413 -112.424900 41 5024ft 0kts

Navigation Log

Ident Type
Flight plan parsing failed, navigation log unavailable